Enoch, Utah
Current Conditions -  °F | °C
As of 5:53 PM on Sunday 21 Dec 2014 (Local Time) from KCDC Reporting Station
Broken Clouds Broken Clouds  
Wind Chill: 45°   Ceiling: 9000
Heat Index: 48°   Visibility: 10mi
Dew Point: 34°   Wind: 6mph
Humidity: 58%   Direction: 140°SE
Pressure: 30.05"   Gusts: NA
Location:  37.7617°N, 113.219°W
Report Text: KCDC 220053Z AUTO 14005KT 10SM BKN090 09/01 A3005 RMK AO2 SLP165 T00890011
Loading
Personal Weather Stations






























Interactive Weather Map New forecast layout! Learn more

10-Day Weather Forecast

Advertisements
Track Severe Weather on mobile